createdAt,value
2019-05-17T00:00:37.424Z,34.83
2019-05-17T00:03:14.421Z,36.95
2019-05-17T00:05:51.556Z,38.35
2019-05-17T00:08:34.395Z,43.35
2019-05-17T00:11:19.095Z,36.40
2019-05-17T00:13:54.358Z,32.08
2019-05-17T00:16:28.941Z,25.23
2019-05-17T00:19:03.674Z,30.88
2019-05-17T00:21:38.114Z,37.80
2019-05-17T00:24:12.561Z,36.88
2019-05-17T00:26:46.786Z,29.45
2019-05-17T00:29:21.591Z,35.78
2019-05-17T00:31:56.869Z,40.88
2019-05-17T00:34:31.521Z,30.52
2019-05-17T00:37:07.048Z,38.98
2019-05-17T00:39:44.439Z,23.45
2019-05-17T00:42:19.635Z,27.70
2019-05-17T00:44:56.427Z,38.05
2019-05-17T00:47:29.846Z,38.63
2019-05-17T00:50:04.367Z,38.73
2019-05-17T00:52:38.973Z,39.63
2019-05-17T00:55:17.619Z,35.88
2019-05-17T00:57:52.431Z,25.70
2019-05-17T01:00:27.856Z,42.20
2019-05-17T01:03:02.891Z,41.83
2019-05-17T01:05:37.795Z,39.08
2019-05-17T01:08:12.148Z,36.03
2019-05-17T01:10:47.363Z,37.75
2019-05-17T01:13:22.194Z,52.27
2019-05-17T01:15:56.881Z,38.42
2019-05-17T01:18:31.613Z,49.05
2019-05-17T01:21:06.427Z,46.55
2019-05-17T01:23:42.047Z,40.92
2019-05-17T01:26:18.392Z,36.05
2019-05-17T01:28:52.860Z,31.52
2019-05-17T01:31:29.283Z,30.20
2019-05-17T01:34:04.259Z,36.58
2019-05-17T01:36:38.928Z,35.48
2019-05-17T01:39:17.738Z,29.98
2019-05-17T01:41:48.785Z,26.25
2019-05-17T01:44:23.582Z,34.00
2019-05-17T01:46:59.219Z,32.23
2019-05-17T01:49:36.163Z,32.08
2019-05-17T01:52:16.955Z,25.90
2019-05-17T01:54:51.509Z,23.73
2019-05-17T01:57:27.286Z,33.98
2019-05-17T02:00:00.829Z,33.23
2019-05-17T02:02:36.631Z,27.15
2019-05-17T02:05:17.082Z,28.23
2019-05-17T02:07:50.555Z,26.95
2019-05-17T02:10:24.639Z,29.70
2019-05-17T02:12:59.125Z,29.85
2019-05-17T02:15:33.986Z,33.55
2019-05-17T02:18:08.623Z,24.45
2019-05-17T02:20:43.249Z,28.02
2019-05-17T02:23:17.982Z,28.17
2019-05-17T02:25:52.569Z,33.83
2019-05-17T02:28:27.185Z,27.17
2019-05-17T02:31:03.405Z,29.02
2019-05-17T02:33:38.030Z,28.05
2019-05-17T02:36:14.223Z,31.77
2019-05-17T02:38:48.362Z,29.57
2019-05-17T02:41:22.806Z,28.57
2019-05-17T02:43:57.277Z,35.03
2019-05-17T02:46:33.790Z,29.07
2019-05-17T02:49:08.912Z,29.42
2019-05-17T02:51:43.631Z,32.95
2019-05-17T02:54:18.223Z,31.15
2019-05-17T02:56:53.842Z,34.83
2019-05-17T02:59:27.949Z,29.57
2019-05-17T03:02:03.633Z,33.42
2019-05-17T03:04:38.739Z,32.93
2019-05-17T03:07:13.686Z,26.50
2019-05-17T03:09:48.205Z,32.60
2019-05-17T03:12:23.653Z,32.67
2019-05-17T03:14:58.113Z,36.15
2019-05-17T03:17:33.891Z,29.90
2019-05-17T03:20:08.910Z,33.00
2019-05-17T03:22:44.364Z,34.92
2019-05-17T03:25:19.169Z,34.67
2019-05-17T03:27:53.861Z,31.90
2019-05-17T03:30:29.116Z,37.08
2019-05-17T03:33:17.975Z,31.45
2019-05-17T03:35:56.581Z,37.30
2019-05-17T03:38:28.584Z,32.53
2019-05-17T03:41:13.478Z,33.45
2019-05-17T03:43:43.366Z,33.92
2019-05-17T03:46:14.332Z,32.00
2019-05-17T03:48:53.151Z,32.15
2019-05-17T03:51:27.305Z,41.50
2019-05-17T03:54:02.384Z,34.67
2019-05-17T03:56:38.521Z,38.08
2019-05-17T03:59:26.060Z,32.05
2019-05-17T04:02:03.014Z,36.70
2019-05-17T04:04:35.921Z,35.63
2019-05-17T04:07:12.685Z,32.67
2019-05-17T04:09:48.605Z,33.92
2019-05-17T04:12:43.584Z,34.73
2019-05-17T04:15:17.497Z,37.88
2019-05-17T04:17:52.878Z,29.23
2019-05-17T04:20:36.988Z,36.55
2019-05-17T04:23:04.177Z,33.20
2019-05-17T04:25:38.964Z,34.35
2019-05-17T04:28:22.814Z,30.62
2019-05-17T04:30:54.904Z,29.27
2019-05-17T04:33:33.612Z,37.78
2019-05-17T04:36:22.496Z,28.60
2019-05-17T04:38:53.938Z,31.70
2019-05-17T04:41:41.318Z,28.77
2019-05-17T04:44:08.664Z,26.27
2019-05-17T04:46:45.099Z,30.35
2019-05-17T04:49:19.594Z,29.60
2019-05-17T04:52:03.342Z,32.05
2019-05-17T04:54:42.468Z,32.33
2019-05-17T04:57:16.680Z,27.42
2019-05-17T04:59:52.346Z,38.88
2019-05-17T05:02:26.865Z,31.05
2019-05-17T05:05:03.432Z,30.08
2019-05-17T05:07:42.868Z,26.97
2019-05-17T05:10:16.095Z,31.45
2019-05-17T05:12:52.901Z,33.35
2019-05-17T05:15:48.172Z,27.55
2019-05-17T05:18:22.727Z,26.75
2019-05-17T05:20:58.457Z,30.02
2019-05-17T05:23:33.317Z,35.17
2019-05-17T05:26:12.054Z,34.92
2019-05-17T05:28:52.656Z,38.35
2019-05-17T05:31:28.792Z,40.95
2019-05-17T05:34:03.505Z,40.92
2019-05-17T05:36:41.882Z,38.25
2019-05-17T05:39:16.432Z,26.25
2019-05-17T05:42:04.888Z,36.80
2019-05-17T05:44:27.361Z,28.47
2019-05-17T05:47:02.140Z,30.35
2019-05-17T05:52:28.962Z,34.58
2019-05-17T05:55:03.286Z,38.67
2019-05-17T05:57:42.479Z,43.15
2019-05-17T06:00:16.179Z,34.00
2019-05-17T06:02:55.678Z,42.15
2019-05-17T06:05:32.807Z,38.88
2019-05-17T06:08:13.813Z,44.18
2019-05-17T06:10:57.971Z,42.23
2019-05-17T06:13:38.700Z,39.33
2019-05-17T06:16:13.523Z,37.30
2019-05-17T06:18:51.675Z,34.58
2019-05-17T06:21:25.982Z,36.30
2019-05-17T06:24:19.468Z,35.03
2019-05-17T06:26:47.390Z,31.82
2019-05-17T06:29:22.883Z,38.02
2019-05-17T06:31:57.846Z,35.33
2019-05-17T06:34:36.696Z,34.58
2019-05-17T06:37:12.990Z,33.92
2019-05-17T06:39:48.553Z,39.50
2019-05-17T06:42:37.368Z,37.38
2019-05-17T06:45:01.933Z,35.17
2019-05-17T06:47:36.271Z,32.90
2019-05-17T06:50:13.875Z,31.07
2019-05-17T06:52:47.251Z,29.20
2019-05-17T06:55:24.290Z,32.53
2019-05-17T06:57:58.408Z,32.78
2019-05-17T07:00:32.987Z,30.02
2019-05-17T07:03:09.416Z,35.00
2019-05-17T07:05:46.325Z,36.63
2019-05-17T07:08:20.561Z,34.75
2019-05-17T07:10:59.585Z,34.67
2019-05-17T07:13:49.615Z,32.42
2019-05-17T07:16:23.982Z,30.10
2019-05-17T07:18:59.705Z,30.00
2019-05-17T07:21:40.383Z,35.80
2019-05-17T07:24:15.236Z,33.20
2019-05-17T07:26:50.475Z,30.02
2019-05-17T07:29:30.761Z,30.25
2019-05-17T07:32:06.577Z,34.18
2019-05-17T07:34:41.144Z,36.85
2019-05-17T07:37:16.450Z,37.20
2019-05-17T07:40:00.509Z,38.20
2019-05-17T07:42:29.821Z,30.40
2019-05-17T07:45:03.737Z,37.35
2019-05-17T07:47:40.132Z,43.68
2019-05-17T07:50:14.339Z,38.13
2019-05-17T07:52:49.955Z,35.28
2019-05-17T07:55:23.991Z,35.52
2019-05-17T07:58:00.248Z,35.05
2019-05-17T08:00:34.763Z,29.20
2019-05-17T08:03:12.661Z,29.75
2019-05-17T08:05:45.047Z,33.98
2019-05-17T08:08:20.784Z,36.30
2019-05-17T08:10:55.490Z,38.65
2019-05-17T08:13:33.769Z,41.92
2019-05-17T08:16:10.133Z,40.05
2019-05-17T08:18:45.538Z,38.08
2019-05-17T08:21:20.048Z,32.53
2019-05-17T08:23:55.236Z,34.30
2019-05-17T08:26:30.016Z,35.00
2019-05-17T08:29:09.846Z,37.65
2019-05-17T08:31:43.501Z,42.40
2019-05-17T08:34:19.673Z,30.43
2019-05-17T08:36:53.627Z,31.87
2019-05-17T08:39:30.193Z,60.67
2019-05-17T08:42:13.242Z,66.87
2019-05-17T08:44:49.681Z,62.78
2019-05-17T08:47:24.643Z,64.85
2019-05-17T08:50:00.493Z,61.00
2019-05-17T08:52:35.885Z,63.30
2019-05-17T08:55:11.062Z,68.22
2019-05-17T08:57:45.426Z,64.55
2019-05-17T09:00:20.720Z,69.60
2019-05-17T09:02:55.390Z,68.30
2019-05-17T09:05:30.964Z,74.85
2019-05-17T09:08:05.670Z,65.90
2019-05-17T09:10:40.786Z,66.07
2019-05-17T09:13:19.380Z,57.78
2019-05-17T09:15:52.729Z,60.78
2019-05-17T09:18:29.961Z,54.53
2019-05-17T09:21:21.876Z,51.83
2019-05-17T09:23:41.001Z,53.95
2019-05-17T09:26:15.485Z,60.58
2019-05-17T09:28:49.948Z,54.50
2019-05-17T09:31:24.847Z,50.12
2019-05-17T09:34:00.230Z,53.58
2019-05-17T09:36:34.667Z,58.95
2019-05-17T09:39:10.843Z,65.42
2019-05-17T09:41:45.524Z,56.25
2019-05-17T09:44:21.224Z,54.38
2019-05-17T09:46:55.968Z,53.10
2019-05-17T09:49:32.927Z,50.05
2019-05-17T09:52:09.453Z,50.43
2019-05-17T09:54:45.486Z,52.33
2019-05-17T09:57:20.485Z,51.83
2019-05-17T09:59:56.019Z,45.20
2019-05-17T10:02:30.479Z,50.00
2019-05-17T10:05:04.754Z,49.08
2019-05-17T10:07:40.209Z,49.77
2019-05-17T10:10:20.303Z,50.63
2019-05-17T10:12:54.900Z,54.63
2019-05-17T10:15:30.104Z,52.62
2019-05-17T10:18:04.823Z,56.80
2019-05-17T10:20:39.912Z,58.20
2019-05-17T10:23:14.305Z,52.17
2019-05-17T10:25:48.611Z,52.65
2019-05-17T10:28:23.140Z,56.83
2019-05-17T10:31:02.024Z,52.10
2019-05-17T10:33:35.587Z,56.92
2019-05-17T10:36:10.507Z,52.88
2019-05-17T10:38:50.108Z,49.95
2019-05-17T10:41:30.104Z,55.10
2019-05-17T10:44:15.673Z,63.65
2019-05-17T10:46:53.812Z,48.20
2019-05-17T10:49:31.125Z,49.75
2019-05-17T10:52:14.439Z,50.28
2019-05-17T10:54:46.923Z,56.00
2019-05-17T10:57:21.157Z,53.48
2019-05-17T10:59:59.280Z,57.43
2019-05-17T11:02:33.914Z,50.92
2019-05-17T11:05:16.041Z,53.58
2019-05-17T11:07:50.487Z,53.75
2019-05-17T11:10:26.237Z,53.40
2019-05-17T11:13:01.685Z,47.10
2019-05-17T11:15:41.710Z,53.05
2019-05-17T11:18:19.642Z,48.52
2019-05-17T11:20:52.817Z,43.25
2019-05-17T11:23:27.198Z,46.75
2019-05-17T11:26:01.480Z,48.25
2019-05-17T11:28:35.879Z,51.98
2019-05-17T11:31:10.476Z,46.33
2019-05-17T11:33:45.240Z,48.42
2019-05-17T11:36:19.736Z,49.73
2019-05-17T11:38:54.339Z,48.08
2019-05-17T11:41:32.093Z,49.15
2019-05-17T11:44:07.750Z,49.77
2019-05-17T11:46:43.893Z,45.40
2019-05-17T11:49:18.284Z,48.17
2019-05-17T11:51:53.298Z,48.70
2019-05-17T11:54:27.982Z,44.27
2019-05-17T11:57:07.943Z,60.20
2019-05-17T11:59:43.796Z,61.40
2019-05-17T12:02:21.382Z,56.25
2019-05-17T12:04:55.861Z,48.08
2019-05-17T12:07:29.992Z,53.85
2019-05-17T12:10:04.671Z,51.55
2019-05-17T12:12:40.902Z,47.45
2019-05-17T12:15:17.458Z,53.05
2019-05-17T12:17:51.997Z,49.55
2019-05-17T12:20:26.968Z,56.73
2019-05-17T12:23:01.312Z,51.35
2019-05-17T12:25:35.789Z,44.73
2019-05-17T12:28:11.662Z,47.23
2019-05-17T12:30:46.517Z,59.98
2019-05-17T12:33:20.794Z,43.78
2019-05-17T12:35:55.094Z,61.75
2019-05-17T12:38:29.669Z,45.98
2019-05-17T12:41:04.909Z,51.23
2019-05-17T12:43:40.205Z,42.75
2019-05-17T12:46:14.726Z,47.45
2019-05-17T12:48:54.578Z,41.75
2019-05-17T12:51:33.036Z,47.23
2019-05-17T12:54:12.619Z,52.53
2019-05-17T12:56:53.425Z,46.75
2019-05-17T12:59:27.788Z,44.53
2019-05-17T13:02:08.151Z,47.33
2019-05-17T13:04:43.100Z,49.25
2019-05-17T13:07:19.675Z,46.45
2019-05-17T13:09:55.115Z,43.80
2019-05-17T13:12:30.927Z,39.42
2019-05-17T13:15:10.550Z,43.60
2019-05-17T13:17:46.452Z,46.63
2019-05-17T13:20:22.103Z,47.60
2019-05-17T13:22:59.312Z,48.70
2019-05-17T13:25:36.189Z,43.92
2019-05-17T13:28:11.735Z,51.90
2019-05-17T13:30:49.820Z,40.98
2019-05-17T13:33:29.243Z,45.35
2019-05-17T13:36:04.718Z,42.05
2019-05-17T13:38:42.064Z,44.58
2019-05-17T13:41:18.338Z,40.15
2019-05-17T13:43:59.992Z,39.98
2019-05-17T13:46:37.384Z,36.50
2019-05-17T13:49:13.732Z,42.27
2019-05-17T13:51:48.406Z,40.05
2019-05-17T13:54:26.121Z,45.25
2019-05-17T13:57:01.913Z,41.00
2019-05-17T13:59:37.444Z,49.65
2019-05-17T14:02:12.144Z,48.65
2019-05-17T14:04:48.946Z,39.92
2019-05-17T14:07:32.482Z,45.12
2019-05-17T14:10:24.571Z,42.23
2019-05-17T14:12:45.234Z,50.45
2019-05-17T14:15:22.413Z,43.70
2019-05-17T14:17:57.989Z,44.75
2019-05-17T14:20:34.585Z,39.42
2019-05-17T14:23:09.493Z,50.12
2019-05-17T14:25:45.551Z,52.93
2019-05-17T14:28:22.289Z,44.95
2019-05-17T14:30:57.592Z,48.30
2019-05-17T14:33:36.193Z,51.08
2019-05-17T14:36:11.793Z,51.23
2019-05-17T14:38:46.277Z,52.98
2019-05-17T14:41:21.015Z,51.18
2019-05-17T14:43:59.334Z,49.88
2019-05-17T14:46:36.360Z,46.05
2019-05-17T14:49:14.374Z,48.60
2019-05-17T14:51:54.710Z,42.03
2019-05-17T14:54:33.729Z,42.48
2019-05-17T14:57:11.627Z,45.33
2019-05-17T14:59:48.133Z,47.27
2019-05-17T15:02:25.397Z,45.95
2019-05-17T15:05:05.177Z,43.25
2019-05-17T15:07:43.189Z,46.53
2019-05-17T15:10:23.490Z,47.33
2019-05-17T15:13:07.108Z,46.53
2019-05-17T15:15:50.741Z,51.60
2019-05-17T15:18:26.288Z,49.53
2019-05-17T15:21:04.458Z,45.38
2019-05-17T15:23:43.247Z,48.15
2019-05-17T15:26:20.664Z,42.10
2019-05-17T15:28:59.878Z,47.53
2019-05-17T15:31:37.805Z,47.15
2019-05-17T15:34:16.819Z,47.60
2019-05-17T15:36:53.311Z,49.93
2019-05-17T15:39:30.671Z,50.52
2019-05-17T15:42:20.788Z,44.18
2019-05-17T15:45:00.375Z,46.48
2019-05-17T15:47:50.408Z,48.23
2019-05-17T15:50:31.433Z,46.30
2019-05-17T15:53:04.944Z,49.90
2019-05-17T15:55:54.313Z,43.92
2019-05-17T15:58:32.136Z,43.35
2019-05-17T16:01:13.116Z,38.78
2019-05-17T16:03:49.599Z,40.30
2019-05-17T16:09:15.602Z,40.67
2019-05-17T16:11:59.477Z,43.92
2019-05-17T16:14:34.162Z,42.85
2019-05-17T16:17:29.851Z,51.80
2019-05-17T16:20:05.012Z,40.95
2019-05-17T16:22:44.151Z,51.00
2019-05-17T16:25:20.331Z,49.03
2019-05-17T16:28:01.322Z,48.13
2019-05-17T16:30:41.258Z,40.88
2019-05-17T16:33:15.453Z,45.85
2019-05-17T16:35:53.308Z,46.40
2019-05-17T16:38:34.162Z,40.30
2019-05-17T16:41:09.644Z,53.10
2019-05-17T16:43:45.025Z,47.58
2019-05-17T16:46:20.285Z,48.85
2019-05-17T16:48:57.773Z,46.68
2019-05-17T16:51:36.876Z,53.40
2019-05-17T16:54:13.675Z,45.38
2019-05-17T16:56:48.071Z,50.45
2019-05-17T16:59:23.872Z,49.70
2019-05-17T17:01:59.295Z,45.17
2019-05-17T17:04:33.697Z,45.40
2019-05-17T17:07:09.747Z,47.78
2019-05-17T17:09:45.072Z,39.65
2019-05-17T17:12:22.043Z,43.45
2019-05-17T17:14:56.572Z,51.08
2019-05-17T17:17:33.180Z,44.42
2019-05-17T17:20:09.532Z,45.33
2019-05-17T17:22:43.796Z,44.85
2019-05-17T17:25:18.442Z,51.10
2019-05-17T17:27:52.715Z,46.25
2019-05-17T17:30:29.847Z,50.60
2019-05-17T17:33:05.620Z,46.83
2019-05-17T17:35:46.781Z,42.90
2019-05-17T17:38:20.934Z,44.95
2019-05-17T17:40:55.255Z,51.88
2019-05-17T17:43:30.004Z,48.35
2019-05-17T17:46:05.902Z,49.05
2019-05-17T17:48:40.390Z,47.75
2019-05-17T17:51:14.883Z,50.98
2019-05-17T17:53:49.867Z,47.93
2019-05-17T17:56:24.764Z,48.60
2019-05-17T17:58:59.182Z,49.40
2019-05-17T18:01:33.521Z,46.45
2019-05-17T18:04:08.826Z,45.70
2019-05-17T18:06:44.097Z,50.88
2019-05-17T18:09:31.298Z,47.60
2019-05-17T18:12:05.928Z,56.02
2019-05-17T18:14:46.332Z,49.48
2019-05-17T18:17:23.006Z,55.30
2019-05-17T18:20:00.746Z,50.17
2019-05-17T18:22:38.044Z,52.05
2019-05-17T18:25:21.165Z,66.15
2019-05-17T18:28:12.197Z,55.48
2019-05-17T18:30:46.417Z,56.63
2019-05-17T18:33:20.692Z,53.45
2019-05-17T18:35:54.933Z,64.92
2019-05-17T18:38:31.442Z,52.27
2019-05-17T18:41:09.388Z,60.23
2019-05-17T18:43:43.575Z,54.80
2019-05-17T18:46:18.081Z,57.33
2019-05-17T18:48:52.875Z,51.68
2019-05-17T18:51:27.321Z,48.35
2019-05-17T18:54:02.072Z,48.70
2019-05-17T18:56:36.646Z,56.00
2019-05-17T18:59:11.101Z,53.15
2019-05-17T19:01:45.726Z,52.80
2019-05-17T19:04:20.575Z,50.75
2019-05-17T19:06:55.399Z,60.38
2019-05-17T19:09:30.322Z,53.10
2019-05-17T19:12:04.299Z,53.83
2019-05-17T19:14:42.889Z,51.50
2019-05-17T19:17:14.454Z,49.80
2019-05-17T19:19:48.956Z,48.23
2019-05-17T19:22:23.202Z,49.03
2019-05-17T19:24:57.880Z,55.12
2019-05-17T19:27:58.548Z,51.08
2019-05-17T19:30:33.267Z,53.80
2019-05-17T19:33:07.718Z,46.40
2019-05-17T19:35:42.533Z,48.85
2019-05-17T19:38:17.217Z,44.65
2019-05-17T19:40:51.345Z,50.52
2019-05-17T19:43:25.577Z,47.20
2019-05-17T19:46:00.012Z,54.20
2019-05-17T19:48:35.736Z,47.27
2019-05-17T19:51:27.881Z,43.55
2019-05-17T19:54:01.875Z,38.58
2019-05-17T19:56:36.406Z,43.75
2019-05-17T19:59:10.889Z,45.63
2019-05-17T20:02:05.929Z,48.92
2019-05-17T20:04:38.570Z,46.58
2019-05-17T20:10:03.418Z,46.98
2019-05-17T20:12:38.302Z,49.23
2019-05-17T20:15:17.749Z,50.67
2019-05-17T20:17:50.107Z,49.88
2019-05-17T20:20:42.092Z,50.35
2019-05-17T20:23:28.735Z,49.10
2019-05-17T20:26:03.319Z,45.85
2019-05-17T20:28:54.733Z,49.55
2019-05-17T20:31:28.976Z,51.37
2019-05-17T20:34:03.479Z,47.73
2019-05-17T20:36:41.135Z,48.30
2019-05-17T20:39:16.653Z,43.45
2019-05-17T20:41:51.103Z,52.67
2019-05-17T20:44:25.126Z,45.92
2019-05-17T20:47:00.547Z,46.20
2019-05-17T20:49:34.749Z,43.05
2019-05-17T20:52:12.272Z,39.00
2019-05-17T20:54:47.623Z,41.83
2019-05-17T20:57:22.496Z,40.92
2019-05-17T20:59:57.397Z,34.67
2019-05-17T21:02:31.569Z,43.98
2019-05-17T21:05:06.558Z,36.65
2019-05-17T21:07:40.683Z,35.63
2019-05-17T21:10:16.547Z,44.05
2019-05-17T21:12:51.239Z,43.28
2019-05-17T21:15:25.936Z,44.00
2019-05-17T21:18:00.206Z,45.03
2019-05-17T21:23:25.258Z,48.00
2019-05-17T21:25:59.525Z,39.03
2019-05-17T21:28:34.078Z,44.23
2019-05-17T21:31:08.335Z,38.00
2019-05-17T21:33:42.804Z,42.75
2019-05-17T21:36:16.855Z,39.45
2019-05-17T21:38:51.333Z,45.55
2019-05-17T21:41:25.793Z,45.70
2019-05-17T21:43:59.994Z,37.10
2019-05-17T21:46:34.807Z,41.83
2019-05-17T21:49:09.482Z,44.10
2019-05-17T21:51:44.375Z,48.40
2019-05-17T21:54:18.476Z,38.00
2019-05-17T21:56:52.986Z,43.52
2019-05-17T21:59:27.279Z,43.65
2019-05-17T22:02:01.909Z,39.38
2019-05-17T22:04:53.887Z,40.98
2019-05-17T22:07:28.366Z,54.70
2019-05-17T22:10:02.742Z,47.15
2019-05-17T22:12:37.251Z,41.35
2019-05-17T22:15:12.079Z,46.95
2019-05-17T22:17:46.487Z,47.50
2019-05-17T22:20:20.986Z,44.50
2019-05-17T22:22:55.064Z,48.10
2019-05-17T22:25:29.723Z,49.53
2019-05-17T22:28:04.495Z,47.75
2019-05-17T22:30:38.987Z,45.45
2019-05-17T22:33:13.871Z,50.55
2019-05-17T22:35:48.391Z,46.23
2019-05-17T22:38:28.382Z,50.95
2019-05-17T22:41:13.269Z,44.20
2019-05-17T22:43:42.157Z,44.50
2019-05-17T22:46:33.315Z,46.77
2019-05-17T22:48:52.698Z,48.85
2019-05-17T22:51:27.388Z,50.58
2019-05-17T22:54:04.882Z,52.80
2019-05-17T22:56:39.467Z,64.72
2019-05-17T22:59:14.357Z,53.87
2019-05-17T23:01:48.893Z,58.17
2019-05-17T23:04:23.112Z,50.83
2019-05-17T23:06:57.790Z,58.58
2019-05-17T23:09:32.289Z,62.33
2019-05-17T23:12:07.009Z,59.55
2019-05-17T23:14:41.837Z,61.63
2019-05-17T23:17:16.448Z,57.53
2019-05-17T23:19:51.102Z,61.05
2019-05-17T23:22:25.416Z,65.03
2019-05-17T23:24:59.954Z,59.18
2019-05-17T23:27:34.268Z,59.38
2019-05-17T23:30:10.196Z,76.50
2019-05-17T23:32:45.102Z,68.78
2019-05-17T23:35:19.374Z,64.85
2019-05-17T23:37:56.536Z,58.98
2019-05-17T23:40:34.072Z,63.42
2019-05-17T23:43:08.639Z,60.80
2019-05-17T23:45:43.350Z,56.02
2019-05-17T23:48:18.135Z,55.70
2019-05-17T23:50:52.495Z,56.85
2019-05-17T23:53:27.356Z,74.03
2019-05-17T23:56:01.760Z,62.35
2019-05-17T23:58:36.613Z,57.27
